createdAt,value
2019-03-04T00:01:06.558Z,3.33
2019-03-04T00:03:36.947Z,3.40
2019-03-04T00:06:07.316Z,3.37
2019-03-04T00:08:37.704Z,3.43
2019-03-04T00:11:08.338Z,3.40
2019-03-04T00:13:39.461Z,3.10
2019-03-04T00:16:10.012Z,3.57
2019-03-04T00:18:41.146Z,3.50
2019-03-04T00:21:11.523Z,3.60
2019-03-04T00:23:43.943Z,3.40
2019-03-04T00:26:14.427Z,3.77
2019-03-04T00:28:46.036Z,3.13
2019-03-04T00:31:17.172Z,3.37
2019-03-04T00:33:47.815Z,3.00
2019-03-04T00:36:19.016Z,3.20
2019-03-04T00:39:08.774Z,3.27
2019-03-04T00:41:39.093Z,2.83
2019-03-04T00:44:09.519Z,2.33
2019-03-04T00:46:39.896Z,3.10
2019-03-04T00:49:10.303Z,2.60
2019-03-04T00:52:02.094Z,2.47
2019-03-04T00:54:32.465Z,2.83
2019-03-04T00:57:02.839Z,2.90
2019-03-04T00:59:34.206Z,2.40
2019-03-04T01:02:04.516Z,2.10
2019-03-04T01:04:35.050Z,2.53
2019-03-04T01:07:05.874Z,2.07
2019-03-04T01:09:37.029Z,2.33
2019-03-04T01:12:07.651Z,2.30
2019-03-04T01:14:38.780Z,2.33
2019-03-04T01:17:09.202Z,1.53
2019-03-04T01:19:39.585Z,1.70
2019-03-04T01:22:10.175Z,1.73
2019-03-04T01:24:41.363Z,1.60
2019-03-04T01:27:17.888Z,1.67
2019-03-04T01:29:49.061Z,2.50
2019-03-04T01:32:19.669Z,2.00
2019-03-04T01:34:50.748Z,1.70
2019-03-04T01:37:24.248Z,2.00
2019-03-04T01:39:56.893Z,1.73
2019-03-04T01:42:27.983Z,1.77
2019-03-04T01:45:02.973Z,2.30
2019-03-04T01:47:34.127Z,1.40
2019-03-04T01:50:04.514Z,1.60
2019-03-04T01:52:34.946Z,1.10
2019-03-04T01:55:05.383Z,1.03
2019-03-04T01:57:35.747Z,1.93
2019-03-04T02:00:06.161Z,1.30
2019-03-04T02:02:36.545Z,1.40
2019-03-04T02:05:07.215Z,1.20
2019-03-04T02:07:38.526Z,1.30
2019-03-04T02:10:11.805Z,1.40
2019-03-04T02:12:46.478Z,1.20
2019-03-04T02:15:20.471Z,1.40
2019-03-04T02:17:50.847Z,1.30
2019-03-04T02:20:23.279Z,1.23
2019-03-04T02:22:54.428Z,1.27
2019-03-04T02:25:43.399Z,1.20
2019-03-04T02:28:14.538Z,1.53
2019-03-04T02:30:45.681Z,1.97
2019-03-04T02:33:16.057Z,1.30
2019-03-04T02:36:07.976Z,1.17
2019-03-04T02:38:38.532Z,1.83
2019-03-04T02:41:30.818Z,1.33
2019-03-04T02:44:01.134Z,2.00
2019-03-04T02:46:32.487Z,1.57
2019-03-04T02:49:03.939Z,1.83
2019-03-04T02:51:35.088Z,1.40
2019-03-04T02:54:06.233Z,1.73
2019-03-04T02:56:37.439Z,1.50
2019-03-04T02:59:08.001Z,1.80
2019-03-04T03:01:39.157Z,1.80
2019-03-04T03:04:10.364Z,1.67
2019-03-04T03:06:41.143Z,1.70
2019-03-04T03:09:12.709Z,1.63
2019-03-04T03:11:43.132Z,1.80
2019-03-04T03:14:13.516Z,1.57
2019-03-04T03:16:43.936Z,1.60
2019-03-04T03:19:14.601Z,1.40
2019-03-04T03:21:45.756Z,1.50
2019-03-04T03:27:19.371Z,1.43
2019-03-04T03:29:52.117Z,1.30
2019-03-04T03:32:21.887Z,1.30
2019-03-04T03:34:52.258Z,1.77
2019-03-04T03:37:22.822Z,1.50
2019-03-04T03:39:54.185Z,1.57
2019-03-04T03:42:24.522Z,1.73
2019-03-04T03:44:55.122Z,2.17
2019-03-04T03:47:25.511Z,1.80
2019-03-04T03:49:55.934Z,1.60
2019-03-04T03:52:31.624Z,1.77
2019-03-04T03:55:02.798Z,1.50
2019-03-04T03:57:33.178Z,1.33
2019-03-04T04:00:03.832Z,2.27
2019-03-04T04:02:35.391Z,1.63
2019-03-04T04:05:06.735Z,1.60
2019-03-04T04:07:37.818Z,1.27
2019-03-04T04:10:18.686Z,1.60
2019-03-04T04:12:49.053Z,1.93
2019-03-04T04:15:19.431Z,1.63
2019-03-04T04:17:49.789Z,1.93
2019-03-04T04:20:20.109Z,1.87
2019-03-04T04:22:50.491Z,2.60
2019-03-04T04:25:21.316Z,2.27
2019-03-04T04:27:52.397Z,2.50
2019-03-04T04:30:22.778Z,2.50
2019-03-04T04:32:54.053Z,1.77
2019-03-04T04:35:24.666Z,1.97
2019-03-04T04:37:56.011Z,2.57
2019-03-04T04:40:27.211Z,2.27
2019-03-04T04:43:18.927Z,2.73
2019-03-04T04:45:55.504Z,2.50
2019-03-04T04:48:46.197Z,1.77
2019-03-04T04:51:16.170Z,2.27
2019-03-04T04:53:46.543Z,2.20
2019-03-04T04:56:22.359Z,2.77
2019-03-04T04:58:53.486Z,3.03
2019-03-04T05:01:24.131Z,2.57
2019-03-04T05:03:55.347Z,2.73
2019-03-04T05:06:25.908Z,2.33
2019-03-04T05:08:57.361Z,2.17
2019-03-04T05:11:28.495Z,2.57
2019-03-04T05:13:59.137Z,2.37
2019-03-04T05:16:31.512Z,2.60
2019-03-04T05:19:02.798Z,2.73
2019-03-04T05:21:33.167Z,3.53
2019-03-04T05:24:04.132Z,2.97
2019-03-04T05:26:36.500Z,3.03
2019-03-04T05:29:07.643Z,3.70
2019-03-04T05:31:39.198Z,2.80
2019-03-04T05:34:10.275Z,2.97
2019-03-04T05:36:40.644Z,3.53
2019-03-04T05:39:11.004Z,3.60
2019-03-04T05:41:41.318Z,2.67
2019-03-04T05:44:13.486Z,3.70
2019-03-04T05:46:44.703Z,2.77
2019-03-04T05:49:15.120Z,3.57
2019-03-04T05:51:45.693Z,3.20
2019-03-04T05:54:16.824Z,3.40
2019-03-04T05:56:48.285Z,3.70
2019-03-04T05:59:20.280Z,3.13
2019-03-04T06:01:49.982Z,2.83
2019-03-04T06:04:20.401Z,4.20
2019-03-04T06:06:51.126Z,3.53
2019-03-04T06:09:22.212Z,3.77
2019-03-04T06:12:14.309Z,3.23
2019-03-04T06:14:45.852Z,3.90
2019-03-04T06:17:16.991Z,3.90
2019-03-04T06:19:48.344Z,3.70
2019-03-04T06:22:19.796Z,3.70
2019-03-04T06:24:50.884Z,3.90
2019-03-04T06:27:28.409Z,3.90
2019-03-04T06:29:59.067Z,3.90
2019-03-04T06:32:30.200Z,4.10
2019-03-04T06:35:01.250Z,3.43
2019-03-04T06:37:31.643Z,4.17
2019-03-04T06:40:02.013Z,3.17
2019-03-04T06:42:33.565Z,3.60
2019-03-04T06:45:04.919Z,3.03
2019-03-04T06:47:36.269Z,3.67
2019-03-04T06:50:10.373Z,2.13
2019-03-04T06:52:41.724Z,3.77
2019-03-04T06:58:05.379Z,2.60
2019-03-04T07:00:35.818Z,3.03
2019-03-04T07:03:06.186Z,3.27
2019-03-04T07:05:47.751Z,2.33
2019-03-04T07:08:36.958Z,2.67
2019-03-04T07:11:10.346Z,3.00
2019-03-04T07:13:40.752Z,2.40
2019-03-04T07:16:11.905Z,3.10
2019-03-04T07:18:42.632Z,2.77
2019-03-04T07:21:13.959Z,3.00
2019-03-04T07:23:44.513Z,3.03
2019-03-04T07:26:17.931Z,2.97
2019-03-04T07:28:50.817Z,3.27
2019-03-04T07:31:21.202Z,3.17
2019-03-04T07:33:51.644Z,2.70
2019-03-04T07:36:22.208Z,3.00
2019-03-04T07:38:55.503Z,2.97
2019-03-04T07:41:27.106Z,2.83
2019-03-04T07:43:57.479Z,3.10
2019-03-04T07:46:27.914Z,2.40
2019-03-04T07:49:01.404Z,2.70
2019-03-04T07:51:31.966Z,2.00
2019-03-04T07:54:02.548Z,2.77
2019-03-04T07:56:33.759Z,3.00
2019-03-04T07:59:04.357Z,2.37
2019-03-04T08:01:40.869Z,2.30
2019-03-04T08:04:11.320Z,2.80
2019-03-04T08:06:42.446Z,2.37
2019-03-04T08:09:16.615Z,2.43
2019-03-04T08:12:13.359Z,2.43
2019-03-04T08:14:49.916Z,1.97
2019-03-04T08:17:20.497Z,2.20
2019-03-04T08:20:12.376Z,1.70
2019-03-04T08:22:42.931Z,2.17
2019-03-04T08:25:13.597Z,1.70
2019-03-04T08:27:44.005Z,2.53
2019-03-04T08:30:14.570Z,1.87
2019-03-04T08:32:45.739Z,1.97
2019-03-04T08:35:16.110Z,2.30
2019-03-04T08:37:47.498Z,1.67
2019-03-04T08:40:18.692Z,1.77
2019-03-04T08:42:49.066Z,1.40
2019-03-04T08:45:20.424Z,1.43
2019-03-04T08:47:50.803Z,1.70
2019-03-04T08:50:21.353Z,1.60
2019-03-04T08:52:51.728Z,1.27
2019-03-04T08:55:22.099Z,1.53
2019-03-04T08:57:52.661Z,1.53
2019-03-04T09:00:29.106Z,1.13
2019-03-04T09:03:00.516Z,1.40
2019-03-04T09:05:31.907Z,1.57
2019-03-04T09:08:02.299Z,1.87
2019-03-04T09:13:16.388Z,1.83
2019-03-04T09:15:46.960Z,2.27
2019-03-04T09:18:17.511Z,1.40
2019-03-04T09:20:48.883Z,1.33
2019-03-04T09:23:20.472Z,1.47
2019-03-04T09:25:53.339Z,1.83
2019-03-04T09:28:23.720Z,1.87
2019-03-04T09:30:54.168Z,1.50
2019-03-04T09:33:28.842Z,2.17
2019-03-04T09:35:59.253Z,0.97
2019-03-04T09:38:29.813Z,1.27
2019-03-04T09:41:00.198Z,0.83
2019-03-04T09:43:30.643Z,1.20
2019-03-04T09:46:01.052Z,1.20
2019-03-04T09:48:31.437Z,1.10
2019-03-04T09:51:01.805Z,1.13
2019-03-04T09:53:39.094Z,1.30
2019-03-04T09:56:02.795Z,1.43
2019-03-04T09:58:35.138Z,1.10
2019-03-04T10:01:13.319Z,1.30
2019-03-04T10:04:09.694Z,1.90
2019-03-04T10:06:47.690Z,1.10
2019-03-04T10:09:47.410Z,1.47
2019-03-04T10:12:28.581Z,1.30
2019-03-04T10:15:09.587Z,1.07
2019-03-04T10:18:12.770Z,1.43
2019-03-04T10:21:00.808Z,0.87
2019-03-04T10:23:51.181Z,0.67
2019-03-04T10:26:47.842Z,0.97
2019-03-04T10:29:53.829Z,0.70
2019-03-04T10:32:44.930Z,0.50
2019-03-04T10:36:00.589Z,0.87
2019-03-04T10:38:51.182Z,0.47
2019-03-04T10:41:45.024Z,0.20
2019-03-04T10:44:45.077Z,0.40
2019-03-04T10:47:15.742Z,0.87
2019-03-04T10:49:46.115Z,2.03
2019-03-04T10:52:16.671Z,1.47
2019-03-04T10:54:47.314Z,0.80
2019-03-04T10:57:17.631Z,0.33
2019-03-04T10:59:48.002Z,0.43
2019-03-04T11:02:18.624Z,0.47
2019-03-04T11:04:49.764Z,0.27
2019-03-04T11:07:20.929Z,0.40
2019-03-04T11:09:52.248Z,0.57
2019-03-04T11:12:22.694Z,0.67
2019-03-04T11:14:53.864Z,0.30
2019-03-04T11:17:24.188Z,0.30
2019-03-04T11:19:54.515Z,0.30
2019-03-04T11:22:25.016Z,0.70
2019-03-04T11:24:56.194Z,0.77
2019-03-04T11:27:26.564Z,0.67
2019-03-04T11:29:57.128Z,0.40
2019-03-04T11:32:28.258Z,0.47
2019-03-04T11:34:58.622Z,0.50
2019-03-04T11:37:29.193Z,0.60
2019-03-04T11:40:03.463Z,1.13
2019-03-04T11:42:34.093Z,0.80
2019-03-04T11:45:04.410Z,0.80
2019-03-04T11:47:34.860Z,0.73
2019-03-04T11:50:10.392Z,0.63
2019-03-04T11:52:41.010Z,0.80
2019-03-04T11:57:57.580Z,1.10
2019-03-04T12:00:28.157Z,1.07
2019-03-04T12:02:59.254Z,1.40
2019-03-04T12:05:29.629Z,0.80
2019-03-04T12:08:00.213Z,0.93
2019-03-04T12:10:52.236Z,0.93
2019-03-04T12:13:29.931Z,1.10
2019-03-04T12:16:19.666Z,0.90
2019-03-04T12:18:50.828Z,1.07
2019-03-04T12:21:21.757Z,1.10
2019-03-04T12:23:53.211Z,0.67
2019-03-04T12:26:24.292Z,1.30
2019-03-04T12:29:16.902Z,1.07
2019-03-04T12:31:48.060Z,0.97
2019-03-04T12:34:24.891Z,1.47
2019-03-04T12:36:52.794Z,1.03
2019-03-04T12:39:23.437Z,1.20
2019-03-04T12:41:54.056Z,1.00
2019-03-04T12:44:25.191Z,1.20
2019-03-04T12:46:57.386Z,1.30
2019-03-04T12:49:27.712Z,1.17
2019-03-04T12:51:58.061Z,1.20
2019-03-04T12:54:28.494Z,0.90
2019-03-04T12:57:06.366Z,1.23
2019-03-04T12:59:36.965Z,1.30
2019-03-04T13:02:07.298Z,1.30
2019-03-04T13:04:37.680Z,0.80
2019-03-04T13:07:27.449Z,1.03
2019-03-04T13:10:01.958Z,0.70
2019-03-04T13:12:32.331Z,1.13
2019-03-04T13:15:02.888Z,0.80
2019-03-04T13:17:34.094Z,0.93
2019-03-04T13:20:04.521Z,1.20
2019-03-04T13:22:34.907Z,1.07
2019-03-04T13:25:05.278Z,1.07
2019-03-04T13:27:35.962Z,0.60
2019-03-04T13:30:09.232Z,1.00
2019-03-04T13:32:39.794Z,0.90
2019-03-04T13:35:12.930Z,1.30
2019-03-04T13:37:44.719Z,2.07
2019-03-04T13:40:16.258Z,3.00
2019-03-04T13:42:46.570Z,0.97
2019-03-04T13:45:17.009Z,0.80
2019-03-04T13:47:47.389Z,0.70
2019-03-04T13:50:25.865Z,0.50
2019-03-04T13:52:56.248Z,0.63
2019-03-04T13:55:26.825Z,0.70
2019-03-04T13:57:58.148Z,0.40
2019-03-04T14:00:45.110Z,0.60
2019-03-04T14:03:15.489Z,0.50
2019-03-04T14:05:46.575Z,0.30
2019-03-04T14:08:17.136Z,0.27
2019-03-04T14:10:47.614Z,0.47
2019-03-04T14:13:18.701Z,0.67
2019-03-04T14:15:53.765Z,0.40
2019-03-04T14:18:24.150Z,0.50
2019-03-04T14:20:56.795Z,0.37
2019-03-04T14:23:27.168Z,0.67
2019-03-04T14:26:02.055Z,0.60
2019-03-04T14:28:33.198Z,0.50
2019-03-04T14:31:03.581Z,0.77
2019-03-04T14:33:40.509Z,0.57
2019-03-04T14:36:10.882Z,0.60
2019-03-04T14:38:45.547Z,0.37
2019-03-04T14:41:15.987Z,0.43
2019-03-04T14:43:47.338Z,0.50
2019-03-04T14:46:24.783Z,0.33
2019-03-04T14:48:55.155Z,0.80
2019-03-04T14:51:26.295Z,0.60
2019-03-04T14:53:56.757Z,0.30
2019-03-04T14:56:27.086Z,0.20
2019-03-04T14:59:10.445Z,0.30
2019-03-04T15:01:27.926Z,0.27
2019-03-04T15:03:58.251Z,0.23
2019-03-04T15:06:28.663Z,0.40
2019-03-04T15:08:59.819Z,0.20
2019-03-04T15:11:30.196Z,0.30
2019-03-04T15:14:07.781Z,0.30
2019-03-04T15:17:03.231Z,0.20
2019-03-04T15:19:29.120Z,0.73
2019-03-04T15:22:06.907Z,0.37
2019-03-04T15:24:37.468Z,0.80
2019-03-04T15:27:07.861Z,0.70
2019-03-04T15:29:38.293Z,0.97
2019-03-04T15:32:08.712Z,0.77
2019-03-04T15:34:39.030Z,0.70
2019-03-04T15:37:09.391Z,0.50
2019-03-04T15:39:39.827Z,0.47
2019-03-04T15:42:10.254Z,0.40
2019-03-04T15:44:40.822Z,0.33
2019-03-04T15:47:12.139Z,0.43
2019-03-04T15:49:42.507Z,0.80
2019-03-04T15:52:12.891Z,0.70
2019-03-04T15:54:43.456Z,1.17
2019-03-04T15:57:15.091Z,0.50
2019-03-04T15:59:45.661Z,0.70
2019-03-04T16:02:15.991Z,1.00
2019-03-04T16:04:46.409Z,1.33
2019-03-04T16:07:16.664Z,1.00
2019-03-04T16:12:33.344Z,0.70
2019-03-04T16:15:04.434Z,1.10
2019-03-04T16:17:35.013Z,1.00
2019-03-04T16:20:15.573Z,0.70
2019-03-04T16:22:55.107Z,0.50
2019-03-04T16:25:25.435Z,1.40
2019-03-04T16:28:09.737Z,0.80
2019-03-04T16:30:40.334Z,1.60
2019-03-04T16:33:11.547Z,1.03
2019-03-04T16:35:42.206Z,0.83
2019-03-04T16:38:13.656Z,0.77
2019-03-04T16:40:44.733Z,0.77
2019-03-04T16:43:15.114Z,1.37
2019-03-04T16:45:45.563Z,0.97
2019-03-04T16:48:15.998Z,1.90
2019-03-04T16:50:46.624Z,1.37
2019-03-04T16:53:20.452Z,0.83
2019-03-04T16:55:51.174Z,0.90
2019-03-04T16:58:22.295Z,1.57
2019-03-04T17:00:52.666Z,1.07
2019-03-04T17:03:24.708Z,2.10
2019-03-04T17:05:55.266Z,1.33
2019-03-04T17:08:30.764Z,1.00
2019-03-04T17:11:02.231Z,1.60
2019-03-04T17:13:33.569Z,1.60
2019-03-04T17:16:05.837Z,1.10
2019-03-04T17:18:36.480Z,1.77
2019-03-04T17:21:07.614Z,2.00
2019-03-04T17:23:38.813Z,2.20
2019-03-04T17:26:11.440Z,1.20
2019-03-04T17:28:42.814Z,1.50
2019-03-04T17:31:13.521Z,1.53
2019-03-04T17:33:45.634Z,1.37
2019-03-04T17:36:15.715Z,1.83
2019-03-04T17:38:47.065Z,1.83
2019-03-04T17:41:18.409Z,1.57
2019-03-04T17:43:49.534Z,1.00
2019-03-04T17:46:20.182Z,1.33
2019-03-04T17:48:51.534Z,2.57
2019-03-04T17:51:22.983Z,3.20
2019-03-04T17:53:54.310Z,3.07
2019-03-04T17:56:24.736Z,1.93
2019-03-04T17:58:55.048Z,2.13
2019-03-04T18:01:25.612Z,2.50
2019-03-04T18:03:56.033Z,2.47
2019-03-04T18:06:26.395Z,2.60
2019-03-04T18:08:56.758Z,1.73
2019-03-04T18:11:27.133Z,1.73
2019-03-04T18:13:58.282Z,2.10
2019-03-04T18:16:28.675Z,1.87
2019-03-04T18:18:59.329Z,1.80
2019-03-04T18:21:31.618Z,1.50
2019-03-04T18:24:02.085Z,1.73
2019-03-04T18:26:32.770Z,1.47
2019-03-04T18:29:32.890Z,1.50
2019-03-04T18:32:33.320Z,0.80
2019-03-04T18:35:46.172Z,1.83
2019-03-04T18:38:40.216Z,1.60
2019-03-04T18:41:28.080Z,1.50
2019-03-04T18:44:33.690Z,1.10
2019-03-04T18:47:20.406Z,1.00
2019-03-04T18:49:52.868Z,1.87
2019-03-04T18:52:23.525Z,0.90
2019-03-04T18:54:54.880Z,1.67
2019-03-04T18:57:25.499Z,1.90
2019-03-04T18:59:56.644Z,1.30
2019-03-04T19:02:27.779Z,1.40
2019-03-04T19:04:58.156Z,1.37
2019-03-04T19:07:28.749Z,1.50
2019-03-04T19:09:59.173Z,1.67
2019-03-04T19:12:30.416Z,1.60
2019-03-04T19:15:01.546Z,1.63
2019-03-04T19:17:33.811Z,1.20
2019-03-04T19:20:02.599Z,1.73
2019-03-04T19:22:32.971Z,1.30
2019-03-04T19:25:03.605Z,1.47
2019-03-04T19:27:34.974Z,1.43
2019-03-04T19:30:10.850Z,0.90
2019-03-04T19:32:41.428Z,1.30
2019-03-04T19:35:11.996Z,1.67
2019-03-04T19:37:42.588Z,2.03
2019-03-04T19:42:57.671Z,2.17
2019-03-04T19:45:29.074Z,2.00
2019-03-04T19:47:59.631Z,1.90
2019-03-04T19:50:30.062Z,1.40
2019-03-04T19:53:00.615Z,2.30
2019-03-04T19:55:31.943Z,2.83
2019-03-04T19:58:02.297Z,2.30
2019-03-04T20:00:34.658Z,2.30
2019-03-04T20:03:05.845Z,1.53
2019-03-04T20:05:37.957Z,1.83
2019-03-04T20:08:08.316Z,1.27
2019-03-04T20:10:38.747Z,2.10
2019-03-04T20:13:09.879Z,2.20
2019-03-04T20:15:41.026Z,2.17
2019-03-04T20:18:11.465Z,2.20
2019-03-04T20:20:41.957Z,1.40
2019-03-04T20:23:13.301Z,2.17
2019-03-04T20:25:43.676Z,1.70
2019-03-04T20:28:14.088Z,2.03
2019-03-04T20:30:44.398Z,1.97
2019-03-04T20:33:15.545Z,2.20
2019-03-04T20:35:47.001Z,2.30
2019-03-04T20:38:34.772Z,2.20
2019-03-04T20:41:11.405Z,2.13
2019-03-04T20:43:42.535Z,1.90
2019-03-04T20:46:13.177Z,2.10
2019-03-04T20:48:44.632Z,1.73
2019-03-04T20:51:15.707Z,1.70
2019-03-04T20:53:46.304Z,3.17
2019-03-04T20:56:18.468Z,1.90
2019-03-04T20:58:49.607Z,2.13
2019-03-04T21:01:20.039Z,2.80
2019-03-04T21:03:50.675Z,2.03
2019-03-04T21:06:21.858Z,1.47
2019-03-04T21:08:55.240Z,1.77
2019-03-04T21:11:25.976Z,1.80
2019-03-04T21:13:56.293Z,1.90
2019-03-04T21:16:26.608Z,1.77
2019-03-04T21:18:57.753Z,1.53
2019-03-04T21:21:28.919Z,1.73
2019-03-04T21:23:59.470Z,1.97
2019-03-04T21:26:52.130Z,2.00
2019-03-04T21:29:42.063Z,1.40
2019-03-04T21:32:23.336Z,1.33
2019-03-04T21:35:20.107Z,1.70
2019-03-04T21:37:52.862Z,0.87
2019-03-04T21:43:22.522Z,1.17
2019-03-04T21:46:18.553Z,1.30
2019-03-04T21:48:49.257Z,1.17
2019-03-04T21:51:37.590Z,1.43
2019-03-04T21:53:58.920Z,1.10
2019-03-04T21:56:53.150Z,1.20
2019-03-04T21:59:30.899Z,1.03
2019-03-04T22:02:09.538Z,1.17
2019-03-04T22:04:40.979Z,1.37
2019-03-04T22:07:12.127Z,1.57
2019-03-04T22:09:42.759Z,1.27
2019-03-04T22:12:13.954Z,1.07
2019-03-04T22:14:44.423Z,1.10
2019-03-04T22:17:15.779Z,1.60
2019-03-04T22:19:47.114Z,1.00
2019-03-04T22:22:17.538Z,0.73
2019-03-04T22:24:48.813Z,1.43
2019-03-04T22:27:19.959Z,1.17
2019-03-04T22:29:50.571Z,1.17
2019-03-04T22:32:21.410Z,1.30
2019-03-04T22:34:52.747Z,0.97
2019-03-04T22:37:23.123Z,1.23
2019-03-04T22:39:53.550Z,1.23
2019-03-04T22:42:24.170Z,0.80
2019-03-04T22:44:55.511Z,1.33
2019-03-04T22:47:26.621Z,1.20
2019-03-04T22:49:57.009Z,1.00
2019-03-04T22:52:46.758Z,1.17
2019-03-04T22:55:22.513Z,1.57
2019-03-04T22:57:54.869Z,1.53
2019-03-04T23:00:39.721Z,1.10
2019-03-04T23:03:10.282Z,1.40
2019-03-04T23:05:41.650Z,1.37
2019-03-04T23:08:12.054Z,1.30
2019-03-04T23:10:42.406Z,1.40
2019-03-04T23:13:46.430Z,1.30
2019-03-04T23:16:38.218Z,1.13
2019-03-04T23:19:09.393Z,1.60
2019-03-04T23:21:41.831Z,1.43
2019-03-04T23:24:12.904Z,1.60
2019-03-04T23:26:43.390Z,1.43
2019-03-04T23:29:14.032Z,1.00
2019-03-04T23:31:45.175Z,1.60
2019-03-04T23:34:16.335Z,1.83
2019-03-04T23:36:47.084Z,1.70
2019-03-04T23:39:17.402Z,1.33
2019-03-04T23:41:47.764Z,1.60
2019-03-04T23:44:18.131Z,1.83
2019-03-04T23:46:49.287Z,1.37
2019-03-04T23:49:20.777Z,2.07
2019-03-04T23:51:51.216Z,1.93
2019-03-04T23:54:21.540Z,1.47
2019-03-04T23:57:11.079Z,1.30
2019-03-04T23:59:41.474Z,1.63
